Time;durP1;ratioP1;P1;durP2;ratioP2;P2;SDS_P1;SDS_P2;PMS_P1;PMS_P2;Temp;Humidity;BMP_temperature;BMP_pressure;BME280_temperature;BME280_humidity;BME280_pressure;Samples;Min_cycle;Max_cycle;Signal;HPM_P1;HPM_P2
2023/12/16 00:01:04;;;;;;;8.30;6.77;;;;;;;4.73;91.14;97700.91;4977472;28;20199;-78
2023/12/16 00:03:29;;;;;;;12.07;7.03;;;;;;;4.68;91.07;97700.25;4993324;28;20700;-78
2023/12/16 00:05:55;;;;;;;13.33;7.47;;;;;;;4.68;90.93;97705.41;4963202;28;20195;-79
2023/12/16 00:08:21;;;;;;;9.60;7.70;;;;;;;4.63;90.62;97701.31;4994648;28;20757;-79
2023/12/16 00:10:47;;;;;;;9.33;7.67;;;;;;;4.60;91.05;97704.84;4979236;28;20176;-78
2023/12/16 00:13:13;;;;;;;11.83;8.00;;;;;;;4.50;90.50;97708.63;4994423;28;20176;-79
2023/12/16 00:15:38;;;;;;;10.57;8.83;;;;;;;4.42;91.11;97700.41;4973633;28;20251;-79
2023/12/16 00:18:03;;;;;;;13.83;9.23;;;;;;;4.34;91.05;97707.56;4994861;28;20702;-79
2023/12/16 00:20:29;;;;;;;18.27;11.53;;;;;;;4.28;90.67;97703.47;4995855;28;20218;-79
2023/12/16 00:22:54;;;;;;;19.20;10.63;;;;;;;4.16;90.74;97702.19;4978256;28;20210;-79
2023/12/16 00:25:20;;;;;;;19.37;10.73;;;;;;;4.06;91.19;97687.97;4978031;28;20297;-79
2023/12/16 00:27:45;;;;;;;20.30;10.67;;;;;;;3.96;91.50;97694.34;4993403;28;20182;-79
2023/12/16 00:30:10;;;;;;;14.50;10.33;;;;;;;3.89;92.18;97691.16;4983054;28;20184;-78
2023/12/16 00:32:39;;;;;;;21.63;12.20;;;;;;;3.77;91.67;97690.75;4997006;28;20188;-78
2023/12/16 00:35:05;;;;;;;15.73;9.40;;;;;;;3.86;92.17;97686.13;4991592;28;20204;-78
2023/12/16 00:37:30;;;;;;;15.23;9.57;;;;;;;3.86;91.75;97698.13;4969995;28;21083;-79
2023/12/16 00:39:56;;;;;;;15.00;9.40;;;;;;;3.90;92.12;97690.28;4994924;28;20188;-79
2023/12/16 00:42:21;;;;;;;19.57;10.60;;;;;;;3.95;91.54;97682.38;4993922;28;20604;-78
2023/12/16 00:44:46;;;;;;;24.30;11.30;;;;;;;4.00;91.66;97701.06;4976657;28;20327;-79
2023/12/16 00:47:12;;;;;;;18.50;10.87;;;;;;;3.97;91.72;97703.72;4993697;28;21161;-79
2023/12/16 00:49:37;;;;;;;12.47;8.20;;;;;;;4.02;92.07;97712.13;4975933;28;20270;-78
2023/12/16 00:52:03;;;;;;;11.80;8.17;;;;;;;4.07;92.48;97715.38;4994020;28;20191;-79
2023/12/16 00:54:29;;;;;;;13.40;9.07;;;;;;;4.10;92.47;97701.56;4993756;28;20182;-79
2023/12/16 00:56:54;;;;;;;10.70;8.13;;;;;;;4.16;92.21;97707.34;4993586;28;20195;-79
2023/12/16 00:59:21;;;;;;;11.33;8.33;;;;;;;4.22;91.83;97699.38;4972484;28;20782;-79
2023/12/16 01:01:46;;;;;;;12.90;9.60;;;;;;;4.22;91.52;97698.53;4974872;28;20181;-79
2023/12/16 01:04:11;;;;;;;10.83;7.80;;;;;;;4.25;91.38;97696.72;4959897;28;20695;-78
2023/12/16 01:06:37;;;;;;;11.43;8.03;;;;;;;4.24;91.30;97707.03;4993268;28;20244;-78
2023/12/16 01:09:03;;;;;;;18.87;10.50;;;;;;;4.19;92.11;97714.09;4975264;28;20208;-78
2023/12/16 01:11:28;;;;;;;11.93;7.83;;;;;;;4.18;91.52;97718.41;4993257;28;20187;-78
2023/12/16 01:13:53;;;;;;;12.37;8.50;;;;;;;4.16;91.13;97720.19;4975442;28;20230;-78
2023/12/16 01:16:19;;;;;;;8.10;6.03;;;;;;;4.18;91.37;97723.53;4992632;28;20306;-78
2023/12/16 01:18:44;;;;;;;8.43;6.67;;;;;;;4.21;91.24;97723.41;4992524;28;20186;-78
2023/12/16 01:21:10;;;;;;;9.10;6.83;;;;;;;4.22;91.09;97740.53;4976063;28;20286;-79
2023/12/16 01:23:36;;;;;;;9.20;6.53;;;;;;;4.23;91.08;97731.91;4976678;28;20219;-78
2023/12/16 01:26:03;;;;;;;10.03;7.87;;;;;;;4.15;91.12;97728.81;4976619;28;20542;-78
2023/12/16 01:28:29;;;;;;;10.20;7.90;;;;;;;4.17;90.89;97736.47;4974013;28;20278;-79
2023/12/16 01:30:54;;;;;;;9.13;7.07;;;;;;;4.16;91.04;97733.06;4976124;28;20270;-79
2023/12/16 01:33:19;;;;;;;11.33;7.63;;;;;;;4.22;91.54;97729.41;4976307;28;20748;-78
2023/12/16 01:35:45;;;;;;;17.13;10.20;;;;;;;4.17;91.52;97728.75;4992397;28;20278;-78
2023/12/16 01:38:11;;;;;;;16.77;9.87;;;;;;;4.21;91.28;97744.00;4975618;28;20211;-79
2023/12/16 01:40:37;;;;;;;11.33;7.87;;;;;;;4.19;91.49;97735.50;4976229;28;20183;-79
2023/12/16 01:43:06;;;;;;;11.70;8.20;;;;;;;4.21;91.12;97733.72;4993756;28;20210;-79
2023/12/16 01:45:32;;;;;;;12.17;8.10;;;;;;;4.11;91.43;97716.94;4991849;28;20200;-79
2023/12/16 01:47:59;;;;;;;10.70;7.30;;;;;;;4.21;91.64;97727.72;4975693;28;20655;-78
2023/12/16 01:50:25;;;;;;;10.23;7.63;;;;;;;4.18;91.57;97720.13;4976637;28;20233;-78
2023/12/16 01:52:51;;;;;;;28.37;15.67;;;;;;;4.18;91.64;97723.53;4976748;28;20197;-79
2023/12/16 01:55:16;;;;;;;34.93;21.17;;;;;;;4.20;91.42;97729.47;4993947;28;20326;-79
2023/12/16 01:57:42;;;;;;;19.20;11.53;;;;;;;4.29;91.36;97728.28;4974883;28;20700;-79
2023/12/16 02:00:07;;;;;;;20.53;13.30;;;;;;;4.32;91.31;97729.91;4975578;28;20550;-79
2023/12/16 02:02:33;;;;;;;16.07;11.10;;;;;;;4.32;91.58;97725.59;4993741;28;20185;-78
2023/12/16 02:04:59;;;;;;;10.97;7.17;;;;;;;4.30;91.74;97727.41;4973009;28;20239;-78
2023/12/16 02:07:25;;;;;;;9.83;7.23;;;;;;;4.33;91.45;97732.44;4975923;28;20267;-79
2023/12/16 02:09:50;;;;;;;11.80;7.47;;;;;;;4.36;91.84;97740.03;4993432;28;20215;-79
2023/12/16 02:12:15;;;;;;;9.27;6.67;;;;;;;4.41;91.89;97734.72;4993201;28;20654;-79
2023/12/16 02:14:41;;;;;;;8.33;6.20;;;;;;;4.43;91.46;97725.22;4975679;28;20641;-78
2023/12/16 02:17:06;;;;;;;9.87;6.23;;;;;;;4.45;91.60;97726.00;4970884;28;20196;-78
2023/12/16 02:19:33;;;;;;;7.97;5.87;;;;;;;4.46;91.53;97733.66;4970118;28;20194;-79
2023/12/16 02:21:59;;;;;;;8.17;6.10;;;;;;;4.49;91.25;97727.56;4993409;28;20583;-79
2023/12/16 02:24:25;;;;;;;8.30;5.57;;;;;;;4.49;91.42;97730.13;4959937;28;20223;-79
2023/12/16 02:26:51;;;;;;;7.57;5.97;;;;;;;4.48;91.31;97731.03;4991994;28;20180;-79
2023/12/16 02:29:16;;;;;;;7.13;5.30;;;;;;;4.47;91.09;97730.19;4975322;28;20786;-79
2023/12/16 02:31:41;;;;;;;8.17;6.20;;;;;;;4.45;90.95;97728.56;4990359;28;20202;-79
2023/12/16 02:34:07;;;;;;;9.23;6.03;;;;;;;4.45;91.03;97736.28;4976129;28;20241;-79
2023/12/16 02:36:32;;;;;;;9.40;6.40;;;;;;;4.41;91.11;97743.25;4992951;28;20211;-79
2023/12/16 02:38:58;;;;;;;11.30;6.57;;;;;;;4.39;91.22;97739.09;4991660;28;20179;-79
2023/12/16 02:41:23;;;;;;;9.43;6.30;;;;;;;4.40;91.48;97745.91;4968682;28;20184;-79
2023/12/16 02:43:48;;;;;;;7.43;5.00;;;;;;;4.39;90.90;97737.34;4993323;28;20226;-80
2023/12/16 02:46:14;;;;;;;9.13;5.50;;;;;;;4.38;91.00;97742.56;4975888;28;20202;-80
2023/12/16 02:48:39;;;;;;;7.27;6.10;;;;;;;4.26;90.99;97739.53;4992962;28;20194;-80
2023/12/16 02:51:05;;;;;;;7.10;5.07;;;;;;;4.25;90.85;97745.59;4993391;28;20802;-79
2023/12/16 02:53:30;;;;;;;8.87;5.40;;;;;;;4.20;91.43;97742.31;4993174;28;20190;-78
2023/12/16 02:55:55;;;;;;;8.67;5.47;;;;;;;4.19;91.15;97750.09;4975376;28;20214;-79
2023/12/16 02:58:21;;;;;;;7.23;5.17;;;;;;;4.17;91.31;97757.03;4991250;28;20199;-80
2023/12/16 03:00:46;;;;;;;7.97;5.43;;;;;;;4.08;92.05;97758.19;4973158;28;20190;-80
2023/12/16 03:03:12;;;;;;;7.30;5.57;;;;;;;4.18;91.39;97762.13;4991922;28;20211;-79
2023/12/16 03:05:37;;;;;;;7.20;4.90;;;;;;;4.20;91.79;97759.50;4992546;28;20217;-78
2023/12/16 03:08:02;;;;;;;5.73;4.97;;;;;;;4.20;91.01;97759.50;4992488;28;20183;-79
2023/12/16 03:10:28;;;;;;;6.70;4.87;;;;;;;4.21;91.23;97764.56;4953983;28;20613;-80
2023/12/16 03:12:53;;;;;;;7.83;4.90;;;;;;;4.19;91.05;97760.38;4993064;28;20217;-79
2023/12/16 03:15:18;;;;;;;7.70;4.77;;;;;;;4.17;91.17;97769.91;4963305;28;20204;-80
2023/12/16 03:17:44;;;;;;;8.87;5.23;;;;;;;4.07;91.21;97766.81;4990877;28;20274;-79
2023/12/16 03:20:10;;;;;;;6.93;4.93;;;;;;;4.02;91.07;97773.81;4972419;28;20183;-78
2023/12/16 03:22:35;;;;;;;7.97;4.63;;;;;;;4.03;91.09;97772.09;4994460;28;20234;-77
2023/12/16 03:25:01;;;;;;;7.90;5.50;;;;;;;3.96;90.90;97768.88;4994458;28;20250;-79
2023/12/16 03:27:26;;;;;;;7.20;5.07;;;;;;;3.93;91.11;97774.16;4977139;28;20200;-79
2023/12/16 03:29:52;;;;;;;7.30;5.23;;;;;;;3.84;90.46;97761.63;4993902;28;20700;-79
2023/12/16 03:32:17;;;;;;;8.70;5.10;;;;;;;3.78;91.34;97764.38;4978521;28;20194;-80
2023/12/16 03:34:43;;;;;;;8.13;5.40;;;;;;;3.69;91.29;97757.81;4977347;28;20199;-77
2023/12/16 03:37:08;;;;;;;8.47;5.47;;;;;;;3.65;91.54;97769.09;4978717;28;20270;-79
2023/12/16 03:39:33;;;;;;;8.17;5.23;;;;;;;3.62;91.86;97766.63;4951009;28;20195;-79
2023/12/16 03:41:59;;;;;;;8.40;6.03;;;;;;;3.54;91.39;97764.34;4992217;28;20639;-78
2023/12/16 03:44:24;;;;;;;10.23;5.63;;;;;;;3.51;91.58;97761.84;4995506;28;20213;-78
2023/12/16 03:46:49;;;;;;;7.87;5.57;;;;;;;3.42;91.58;97765.53;4977175;28;20185;-79
2023/12/16 03:49:15;;;;;;;7.60;4.87;;;;;;;3.40;91.60;97766.50;4996366;28;20183;-79
2023/12/16 03:51:40;;;;;;;8.83;6.17;;;;;;;3.39;91.95;97762.25;4964187;28;20194;-79
2023/12/16 03:54:05;;;;;;;7.63;5.37;;;;;;;3.38;91.62;97758.00;4978619;28;20267;-79
2023/12/16 03:56:31;;;;;;;6.43;4.90;;;;;;;3.33;91.55;97759.88;4995855;28;20205;-79
2023/12/16 03:58:56;;;;;;;7.53;4.90;;;;;;;3.28;91.69;97754.91;4989957;28;20702;-79
2023/12/16 04:01:23;;;;;;;7.63;4.70;;;;;;;3.28;92.43;97751.50;4977226;28;20271;-78
2023/12/16 04:03:48;;;;;;;8.27;5.47;;;;;;;3.27;92.18;97757.50;4995576;28;20215;-79
2023/12/16 04:06:14;;;;;;;8.37;5.17;;;;;;;3.28;92.16;97760.03;4978131;28;20588;-79
2023/12/16 04:08:40;;;;;;;11.57;6.00;;;;;;;3.28;92.07;97759.19;4997204;28;20196;-79
2023/12/16 04:11:06;;;;;;;9.93;5.40;;;;;;;3.23;91.94;97761.06;4987355;28;20676;-79
2023/12/16 04:13:31;;;;;;;6.87;5.10;;;;;;;3.20;91.60;97761.16;4977788;28;20188;-78
2023/12/16 04:15:56;;;;;;;6.50;5.23;;;;;;;3.16;92.07;97754.44;4978250;28;20752;-79
2023/12/16 04:18:23;;;;;;;9.97;5.73;;;;;;;3.15;91.89;97757.88;4978255;28;20207;-78
2023/12/16 04:20:48;;;;;;;7.07;5.43;;;;;;;3.09;92.42;97757.22;4978395;28;20191;-79
2023/12/16 04:23:14;;;;;;;6.63;4.77;;;;;;;3.10;91.81;97761.47;4995552;28;20204;-78
2023/12/16 04:25:40;;;;;;;9.97;5.67;;;;;;;3.10;91.71;97761.47;4995770;28;20215;-79
2023/12/16 04:28:06;;;;;;;8.77;5.27;;;;;;;3.03;92.34;97759.13;4994001;28;20191;-79
2023/12/16 04:30:32;;;;;;;7.93;4.93;;;;;;;3.00;92.77;97762.59;4993542;28;20195;-78
2023/12/16 04:32:57;;;;;;;9.17;5.00;;;;;;;2.96;92.54;97766.16;4995782;28;20238;-79
2023/12/16 04:35:23;;;;;;;10.30;5.47;;;;;;;2.91;92.98;97768.00;4978040;28;20211;-79
2023/12/16 04:37:48;;;;;;;6.43;4.80;;;;;;;2.94;92.72;97759.41;4994758;28;20646;-79
2023/12/16 04:40:13;;;;;;;6.67;4.70;;;;;;;3.00;92.36;97766.91;4961584;28;20192;-79
2023/12/16 04:42:41;;;;;;;8.60;5.10;;;;;;;2.94;91.93;97770.50;4977334;28;20192;-79
2023/12/16 04:45:07;;;;;;;7.97;5.90;;;;;;;2.95;91.98;97767.06;4976987;28;20274;-79
2023/12/16 04:47:32;;;;;;;7.90;4.97;;;;;;;2.92;92.16;97756.88;4976862;28;20191;-79
2023/12/16 04:49:57;;;;;;;10.47;5.33;;;;;;;2.84;92.70;97758.84;4993664;28;20184;-79
2023/12/16 04:52:23;;;;;;;10.57;4.90;;;;;;;2.89;93.07;97764.66;4982043;28;20183;-79
2023/12/16 04:54:48;;;;;;;12.40;6.77;;;;;;;2.90;92.62;97773.19;4994513;28;20570;-79
2023/12/16 04:57:14;;;;;;;8.93;5.20;;;;;;;2.92;92.89;97777.44;4977957;28;20212;-79
2023/12/16 04:59:39;;;;;;;8.33;5.40;;;;;;;2.84;92.98;97766.53;4973059;28;20255;-79
2023/12/16 05:02:05;;;;;;;8.57;4.57;;;;;;;2.87;93.61;97763.03;4988803;28;20184;-77
2023/12/16 05:04:30;;;;;;;11.23;4.90;;;;;;;2.87;93.46;97766.44;4987143;28;20581;-79
2023/12/16 05:06:55;;;;;;;10.33;5.13;;;;;;;2.84;93.74;97772.53;4979663;28;20193;-79
2023/12/16 05:09:21;;;;;;;10.33;5.40;;;;;;;2.86;93.96;97769.91;4976140;28;20251;-79
2023/12/16 05:11:46;;;;;;;10.60;5.30;;;;;;;2.95;93.79;97774.75;4975831;28;20190;-79
2023/12/16 05:14:11;;;;;;;9.10;5.37;;;;;;;2.96;93.67;97770.47;4993255;28;20184;-79
2023/12/16 05:16:37;;;;;;;15.03;8.17;;;;;;;2.94;93.37;97770.50;4975692;28;20230;-79
2023/12/16 05:19:03;;;;;;;12.47;7.13;;;;;;;3.06;93.01;97777.81;4993168;28;20258;-79
2023/12/16 05:21:29;;;;;;;13.07;6.57;;;;;;;3.08;92.75;97770.06;4993607;28;20267;-78
2023/12/16 05:23:54;;;;;;;10.47;6.50;;;;;;;3.07;92.28;97764.09;4993236;28;20196;-79
2023/12/16 05:26:21;;;;;;;8.97;6.67;;;;;;;2.97;92.27;97772.97;4976050;28;20214;-79
2023/12/16 05:28:46;;;;;;;10.17;5.97;;;;;;;2.94;92.66;97778.22;4991836;28;20285;-79
2023/12/16 05:31:11;;;;;;;11.83;5.80;;;;;;;2.84;93.58;97776.81;4960437;28;20266;-79
2023/12/16 05:33:37;;;;;;;10.50;4.97;;;;;;;2.92;93.05;97785.13;4991634;28;20535;-78
2023/12/16 05:36:03;;;;;;;6.93;5.50;;;;;;;2.87;92.70;97779.28;4993388;28;20204;-79
2023/12/16 05:38:28;;;;;;;9.50;5.17;;;;;;;2.84;92.44;97782.78;4950714;28;20192;-79
2023/12/16 05:40:54;;;;;;;8.40;5.23;;;;;;;2.88;92.36;97777.53;4976071;28;20183;-79
2023/12/16 05:43:19;;;;;;;6.80;5.13;;;;;;;2.83;92.14;97780.25;4992201;28;20204;-79
2023/12/16 05:45:44;;;;;;;7.73;5.13;;;;;;;2.82;91.95;97781.13;4958801;28;20236;-78
2023/12/16 05:48:11;;;;;;;14.00;6.80;;;;;;;2.73;91.52;97781.41;4991420;28;20214;-78
2023/12/16 05:50:36;;;;;;;16.27;8.20;;;;;;;2.68;91.67;97775.59;4973713;28;20185;-79
2023/12/16 05:53:01;;;;;;;15.03;7.00;;;;;;;2.60;92.20;97777.53;4976480;28;20209;-79
2023/12/16 05:55:27;;;;;;;7.87;5.60;;;;;;;2.51;93.02;97770.94;4975716;28;20238;-78
2023/12/16 05:57:53;;;;;;;12.23;6.73;;;;;;;2.54;92.38;97773.41;4991163;28;20184;-79
2023/12/16 06:00:18;;;;;;;8.73;5.43;;;;;;;2.52;93.23;97767.47;4991698;28;20252;-79
2023/12/16 06:02:44;;;;;;;14.80;8.30;;;;;;;2.48;93.11;97774.44;4993228;28;20226;-78
2023/12/16 06:05:09;;;;;;;10.10;6.00;;;;;;;2.41;93.49;97772.94;4975789;28;20211;-79
2023/12/16 06:07:34;;;;;;;7.97;5.60;;;;;;;2.51;93.20;97776.91;4956123;28;20187;-79
2023/12/16 06:10:00;;;;;;;10.20;5.67;;;;;;;2.55;92.52;97782.78;4975580;28;20264;-79
2023/12/16 06:12:25;;;;;;;23.03;12.10;;;;;;;2.54;92.44;97776.81;4975555;28;20685;-79
2023/12/16 06:14:50;;;;;;;23.13;12.50;;;;;;;2.42;93.16;97782.28;4992747;28;20239;-79
2023/12/16 06:17:16;;;;;;;20.03;10.17;;;;;;;2.53;92.89;97782.81;4992528;28;20210;-79
2023/12/16 06:19:41;;;;;;;18.93;10.37;;;;;;;2.47;92.95;97788.16;4975911;28;20219;-78
2023/12/16 06:22:06;;;;;;;14.60;8.23;;;;;;;2.39;93.03;97792.66;4992158;28;20323;-79
2023/12/16 06:24:32;;;;;;;10.57;5.17;;;;;;;2.49;92.74;97788.94;4980101;28;20266;-78
2023/12/16 06:26:57;;;;;;;10.17;5.57;;;;;;;2.53;92.39;97789.69;4973791;28;20188;-78
2023/12/16 06:29:23;;;;;;;8.33;4.83;;;;;;;2.45;92.66;97791.63;4992557;28;20222;-79
2023/12/16 06:31:48;;;;;;;8.83;4.90;;;;;;;2.46;92.18;97795.88;4992613;28;20271;-79
2023/12/16 06:34:16;;;;;;;8.90;5.63;;;;;;;2.54;91.89;97797.31;4961779;28;20214;-79
2023/12/16 06:36:41;;;;;;;7.43;4.47;;;;;;;2.53;91.79;97800.78;4992946;28;20184;-79
2023/12/16 06:39:07;;;;;;;8.23;5.63;;;;;;;2.48;91.32;97807.78;4992633;28;20179;-79
2023/12/16 06:41:33;;;;;;;8.23;5.10;;;;;;;2.55;91.40;97806.69;4975867;28;20176;-79
2023/12/16 06:43:58;;;;;;;7.13;4.40;;;;;;;2.54;92.09;97812.72;4975827;28;20200;-79
2023/12/16 06:46:23;;;;;;;6.60;4.70;;;;;;;2.51;90.83;97822.22;4992659;28;20267;-79
2023/12/16 06:48:49;;;;;;;7.10;3.97;;;;;;;2.54;91.58;97817.84;4973611;28;20179;-79
2023/12/16 06:51:14;;;;;;;9.33;3.93;;;;;;;2.42;91.85;97818.19;4976139;28;20184;-79
2023/12/16 06:53:40;;;;;;;6.57;4.03;;;;;;;2.57;92.18;97821.22;4992961;28;20195;-79
2023/12/16 06:56:07;;;;;;;7.07;4.27;;;;;;;2.61;91.37;97820.25;4991837;28;20286;-79
2023/12/16 06:58:33;;;;;;;9.53;5.83;;;;;;;2.70;91.44;97825.13;4992747;28;20205;-79
2023/12/16 07:00:58;;;;;;;10.93;6.07;;;;;;;2.73;91.14;97823.28;4997760;28;20186;-78
2023/12/16 07:03:23;;;;;;;10.10;5.23;;;;;;;2.80;90.72;97818.81;4981802;28;20200;-79
2023/12/16 07:05:49;;;;;;;7.33;4.43;;;;;;;2.81;90.83;97813.66;4967661;28;20294;-79
2023/12/16 07:08:14;;;;;;;7.50;4.20;;;;;;;2.82;90.76;97811.91;4980402;28;20650;-78
2023/12/16 07:10:40;;;;;;;9.10;4.27;;;;;;;2.90;90.59;97815.09;4998279;28;20190;-78
2023/12/16 07:13:05;;;;;;;8.20;4.70;;;;;;;2.92;90.69;97813.34;4980947;28;20188;-78
2023/12/16 07:15:31;;;;;;;7.00;4.50;;;;;;;2.92;90.73;97810.78;4999016;28;20204;-78
2023/12/16 07:17:56;;;;;;;9.70;4.10;;;;;;;2.91;90.63;97810.81;4998495;28;20248;-78
2023/12/16 07:20:21;;;;;;;5.43;3.87;;;;;;;2.88;90.33;97814.31;4980667;28;20240;-77
2023/12/16 07:22:47;;;;;;;8.63;3.90;;;;;;;2.87;90.19;97815.22;4980071;28;20188;-79
2023/12/16 07:25:12;;;;;;;7.00;3.67;;;;;;;2.80;89.84;97823.97;4963748;28;20215;-78
2023/12/16 07:27:38;;;;;;;6.70;3.93;;;;;;;2.76;90.20;97828.34;4981146;28;20270;-79
2023/12/16 07:30:04;;;;;;;5.97;3.90;;;;;;;2.74;90.30;97831.81;4998588;28;20186;-79
2023/12/16 07:32:29;;;;;;;7.33;3.50;;;;;;;2.71;89.52;97829.34;4998027;28;20203;-79
2023/12/16 07:34:55;;;;;;;9.20;4.33;;;;;;;2.70;89.98;97825.13;4980556;28;20270;-78
2023/12/16 07:37:20;;;;;;;9.53;3.70;;;;;;;2.65;90.26;97829.53;4997397;28;20199;-79
2023/12/16 07:39:45;;;;;;;9.70;3.83;;;;;;;2.70;90.08;97832.81;4978303;28;20184;-79
2023/12/16 07:42:11;;;;;;;9.07;3.70;;;;;;;2.74;89.92;97835.25;4963999;28;20188;-79
2023/12/16 07:44:37;;;;;;;7.80;3.40;;;;;;;2.77;89.77;97829.19;4993714;28;20585;-79
2023/12/16 07:47:02;;;;;;;5.03;3.13;;;;;;;2.82;90.06;97835.84;4972401;28;20215;-79
2023/12/16 07:49:27;;;;;;;5.80;3.90;;;;;;;2.85;89.72;97832.38;4977363;28;20279;-79
2023/12/16 07:51:54;;;;;;;6.20;3.60;;;;;;;2.83;89.45;97834.16;4995796;28;20723;-79
2023/12/16 07:54:22;;;;;;;5.17;3.27;;;;;;;2.91;89.24;97839.88;4961694;28;20181;-78
2023/12/16 07:56:50;;;;;;;6.10;3.37;;;;;;;3.01;89.45;97843.03;4977949;28;20657;-79
2023/12/16 07:59:16;;;;;;;10.07;4.27;;;;;;;3.05;89.04;97844.63;4975545;28;20669;-79
2023/12/16 08:01:41;;;;;;;7.90;4.03;;;;;;;3.15;89.06;97847.75;4978019;28;20181;-79
2023/12/16 08:04:06;;;;;;;11.60;4.93;;;;;;;3.25;88.98;97859.41;4996067;28;20215;-78
2023/12/16 08:06:32;;;;;;;12.83;7.00;;;;;;;3.32;88.62;97853.22;4995634;28;20577;-79
2023/12/16 08:08:58;;;;;;;9.63;5.47;;;;;;;3.42;88.72;97863.16;4995290;28;20180;-78
2023/12/16 08:11:23;;;;;;;12.40;7.10;;;;;;;3.50;88.35;97865.50;4995379;28;20183;-78
2023/12/16 08:13:48;;;;;;;15.47;6.50;;;;;;;3.57;88.15;97869.56;4994068;28;20185;-79
2023/12/16 08:16:14;;;;;;;12.83;7.20;;;;;;;3.62;87.53;97869.38;4995036;28;20220;-79
2023/12/16 08:18:40;;;;;;;13.93;6.57;;;;;;;3.72;88.14;97870.81;4975767;28;20236;-78
2023/12/16 08:21:05;;;;;;;10.07;6.17;;;;;;;3.78;88.03;97864.63;4996061;28;20266;-78
2023/12/16 08:23:30;;;;;;;9.53;5.37;;;;;;;3.86;87.61;97866.03;4994267;28;20204;-79
2023/12/16 08:25:56;;;;;;;11.97;4.43;;;;;;;3.96;87.77;97864.84;4978098;28;20241;-78
2023/12/16 08:28:23;;;;;;;7.73;4.60;;;;;;;4.07;87.40;97866.25;4992785;28;20185;-78
2023/12/16 08:30:50;;;;;;;7.03;3.87;;;;;;;4.08;86.84;97861.06;4996937;28;20270;-79
2023/12/16 08:33:15;;;;;;;8.67;4.07;;;;;;;4.17;87.24;97868.47;4995260;28;20206;-79
2023/12/16 08:35:42;;;;;;;8.37;3.50;;;;;;;4.21;86.66;97872.59;4977615;28;20693;-80
2023/12/16 08:38:08;;;;;;;9.27;3.50;;;;;;;4.24;86.12;97882.78;4998758;28;20195;-79
2023/12/16 08:40:33;;;;;;;6.57;3.80;;;;;;;4.40;85.75;97877.09;4988322;28;20557;-80
2023/12/16 08:42:58;;;;;;;7.23;3.37;;;;;;;4.45;85.61;97880.38;4995538;28;20672;-79
2023/12/16 08:45:24;;;;;;;6.33;3.83;;;;;;;4.57;85.59;97885.06;4993970;28;20231;-78
2023/12/16 08:47:49;;;;;;;13.07;7.97;;;;;;;4.63;85.19;97882.28;4974061;28;20203;-79
2023/12/16 08:50:14;;;;;;;13.97;9.63;;;;;;;4.65;84.70;97888.22;4994837;28;20187;-79
2023/12/16 08:52:40;;;;;;;8.23;6.60;;;;;;;4.72;84.36;97894.84;4993704;28;20191;-78
2023/12/16 08:55:06;;;;;;;8.70;5.53;;;;;;;4.86;84.34;97890.91;4993926;28;20216;-78
2023/12/16 08:57:31;;;;;;;7.47;4.67;;;;;;;4.90;83.95;97888.19;4992187;28;20188;-77
2023/12/16 08:59:57;;;;;;;11.40;3.93;;;;;;;4.96;82.85;97894.88;4994607;28;20201;-78
2023/12/16 09:02:22;;;;;;;8.73;3.47;;;;;;;4.96;82.24;97900.84;4992982;28;20188;-78
2023/12/16 09:04:48;;;;;;;8.37;3.47;;;;;;;5.13;82.76;97905.38;4976697;28;20235;-77
2023/12/16 09:07:13;;;;;;;7.30;4.47;;;;;;;5.21;82.96;97905.94;4994135;28;20187;-80
2023/12/16 09:09:39;;;;;;;7.23;4.23;;;;;;;5.31;82.86;97915.00;4994344;28;20201;-76
2023/12/16 09:12:05;;;;;;;9.10;5.70;;;;;;;5.37;81.92;97914.75;4994070;28;20236;-77
2023/12/16 09:14:30;;;;;;;9.03;5.80;;;;;;;5.38;81.47;97921.56;4993794;28;20859;-77
2023/12/16 09:16:56;;;;;;;10.50;6.67;;;;;;;5.50;82.06;97917.72;4993948;28;20201;-78
2023/12/16 09:19:21;;;;;;;13.80;7.77;;;;;;;5.63;82.21;97926.66;4994048;28;20192;-78
2023/12/16 09:21:48;;;;;;;48.07;22.83;;;;;;;5.65;81.83;97924.00;4974811;28;20654;-77
2023/12/16 09:24:13;;;;;;;61.30;28.90;;;;;;;5.66;81.80;97930.88;4976379;28;20219;-78
2023/12/16 09:26:38;;;;;;;52.47;24.80;;;;;;;5.77;81.81;97930.44;4994268;28;20255;-77
2023/12/16 09:29:04;;;;;;;30.10;16.37;;;;;;;5.89;81.31;97930.78;4997794;28;20567;-80
2023/12/16 09:31:30;;;;;;;14.13;9.17;;;;;;;5.87;81.12;97939.50;5006236;28;20189;-78
2023/12/16 09:33:55;;;;;;;14.07;8.30;;;;;;;5.97;81.11;97940.84;4987420;28;20184;-79
2023/12/16 09:36:26;;;;;;;13.00;7.23;;;;;;;6.04;80.77;97941.44;5000222;28;20210;-79
2023/12/16 09:38:55;;;;;;;10.73;6.40;;;;;;;6.12;80.28;97934.22;4994323;28;20187;-78
2023/12/16 09:41:24;;;;;;;15.40;8.17;;;;;;;6.17;79.82;97938.28;4994789;28;20195;-78
2023/12/16 09:43:53;;;;;;;11.27;6.70;;;;;;;6.16;79.42;97946.09;4976892;28;20208;-78
2023/12/16 09:46:32;;;;;;;8.17;5.23;;;;;;;6.18;78.51;97941.69;4994141;28;20215;-77
2023/12/16 09:48:59;;;;;;;16.47;9.03;;;;;;;6.16;77.95;97946.09;4976696;28;20192;-79
2023/12/16 09:51:24;;;;;;;8.37;6.17;;;;;;;6.13;78.17;97944.47;4980966;28;20246;-80
2023/12/16 09:53:50;;;;;;;10.90;6.60;;;;;;;6.11;78.31;97946.28;4994239;28;20236;-79
2023/12/16 09:56:16;;;;;;;11.50;8.03;;;;;;;6.18;78.48;97942.56;4974391;28;20577;-80
2023/12/16 09:58:43;;;;;;;11.10;7.07;;;;;;;6.38;79.16;97935.75;4993300;28;20266;-80
2023/12/16 10:01:09;;;;;;;15.80;7.23;;;;;;;6.49;79.34;97931.81;4992408;28;20190;-79
2023/12/16 10:03:36;;;;;;;9.47;5.83;;;;;;;6.42;78.29;97932.97;4993754;28;20291;-80
2023/12/16 10:06:02;;;;;;;14.07;6.67;;;;;;;6.41;77.41;97936.44;4993731;28;20627;-78
2023/12/16 10:08:27;;;;;;;6.80;4.03;;;;;;;6.51;76.54;97937.75;4993796;28;20191;-80
2023/12/16 10:10:59;;;;;;;9.73;4.73;;;;;;;6.36;76.03;97937.53;4994479;28;20214;-79
2023/12/16 10:13:26;;;;;;;9.23;4.87;;;;;;;6.43;77.13;97939.78;4974466;28;20591;-80
2023/12/16 10:15:52;;;;;;;15.17;8.03;;;;;;;6.54;76.95;97936.78;4976444;28;20567;-80
2023/12/16 10:18:17;;;;;;;9.73;5.40;;;;;;;6.53;75.65;97924.75;4993241;28;20199;-80
2023/12/16 10:20:43;;;;;;;10.00;4.40;;;;;;;6.64;75.29;97938.06;4993932;28;20192;-79
2023/12/16 10:23:08;;;;;;;6.97;3.83;;;;;;;6.68;75.63;97931.03;4976471;28;20779;-80
2023/12/16 10:25:34;;;;;;;11.17;5.50;;;;;;;6.80;75.85;97930.50;4993524;28;20215;-80
2023/12/16 10:28:03;;;;;;;9.63;4.23;;;;;;;6.78;74.55;97929.72;4992661;28;20199;-79
2023/12/16 10:30:29;;;;;;;9.90;5.40;;;;;;;6.89;74.18;97927.53;4995988;28;20711;-79
2023/12/16 10:32:56;;;;;;;6.17;3.93;;;;;;;6.89;73.80;97922.38;4976932;28;20394;-80
2023/12/16 10:35:23;;;;;;;7.83;4.00;;;;;;;6.79;74.17;97921.06;4995156;28;20258;-80
2023/12/16 10:37:49;;;;;;;137.53;53.60;;;;;;;6.78;73.69;97925.41;4993398;28;20199;-80
2023/12/16 10:40:16;;;;;;;36.80;17.40;;;;;;;6.90;74.32;97911.13;4976592;28;20187;-79
2023/12/16 10:42:41;;;;;;;23.80;10.40;;;;;;;6.96;75.07;97913.41;4993795;28;20198;-80
2023/12/16 10:45:08;;;;;;;11.60;6.83;;;;;;;6.78;73.89;97915.06;4993609;28;20216;-80
2023/12/16 10:47:34;;;;;;;7.90;4.60;;;;;;;6.90;74.46;97908.53;4993296;28;20275;-80
2023/12/16 10:50:00;;;;;;;7.53;4.40;;;;;;;7.03;74.23;97914.84;4993902;28;20226;-80
2023/12/16 10:52:27;;;;;;;9.73;5.20;;;;;;;7.05;73.97;97915.59;4994072;28;20188;-80
2023/12/16 10:55:00;;;;;;;8.73;4.80;;;;;;;7.13;74.12;97911.84;4976271;28;20266;-80
2023/12/16 10:57:42;;;;;;;9.13;5.10;;;;;;;7.18;74.13;97909.91;4975581;28;20262;-80
2023/12/16 11:00:11;;;;;;;8.27;4.20;;;;;;;7.04;72.67;97906.16;4977107;28;20205;-80
2023/12/16 11:02:53;;;;;;;11.60;5.10;;;;;;;7.07;72.98;97900.88;4993584;28;20187;-79
2023/12/16 11:05:28;;;;;;;10.00;3.77;;;;;;;7.16;70.60;97903.97;4989853;28;20227;-79
2023/12/16 11:07:54;;;;;;;7.43;4.10;;;;;;;6.99;70.96;97902.13;4992391;28;20187;-80
2023/12/16 11:10:19;;;;;;;10.00;4.77;;;;;;;7.12;70.46;97894.66;4976414;28;20188;-80
2023/12/16 11:12:45;;;;;;;8.73;4.30;;;;;;;7.20;71.06;97900.31;4993594;28;20188;-79
2023/12/16 11:15:11;;;;;;;8.50;4.60;;;;;;;7.06;70.71;97896.59;4992810;28;20210;-79
2023/12/16 11:17:51;;;;;;;9.63;4.37;;;;;;;7.30;70.85;97888.66;4975761;28;20192;-79
2023/12/16 11:20:17;;;;;;;11.73;4.00;;;;;;;7.16;70.96;97896.22;4992577;28;20196;-78
2023/12/16 11:22:51;;;;;;;7.33;3.80;;;;;;;6.96;70.00;97897.09;4993505;28;20222;-78
2023/12/16 11:25:18;;;;;;;10.23;4.17;;;;;;;7.01;70.49;97897.72;4964219;28;20315;-80
2023/12/16 11:27:46;;;;;;;7.03;3.73;;;;;;;7.10;71.07;97900.75;4993156;28;20206;-79
2023/12/16 11:30:13;;;;;;;20.97;9.03;;;;;;;7.00;70.34;97896.06;4995508;28;20192;-79